sensor_id;sensor_type;location;lat;lon;timestamp;temperature;humidity
80937;DHT22;70395;51.382;7.074;2024-03-29T00:01:23;11.60;49.10
80937;DHT22;70395;51.382;7.074;2024-03-29T00:03:49;11.70;49.00
80937;DHT22;70395;51.382;7.074;2024-03-29T00:06:15;11.60;48.80
80937;DHT22;70395;51.382;7.074;2024-03-29T00:08:41;11.60;48.80
80937;DHT22;70395;51.382;7.074;2024-03-29T00:11:07;11.60;48.80
80937;DHT22;70395;51.382;7.074;2024-03-29T00:13:33;11.70;48.80
80937;DHT22;70395;51.382;7.074;2024-03-29T00:16:00;11.60;48.60
80937;DHT22;70395;51.382;7.074;2024-03-29T00:18:26;11.70;48.80
80937;DHT22;70395;51.382;7.074;2024-03-29T00:20:52;11.70;48.80
80937;DHT22;70395;51.382;7.074;2024-03-29T00:23:17;11.70;48.90
80937;DHT22;70395;51.382;7.074;2024-03-29T00:25:43;11.70;48.70
80937;DHT22;70395;51.382;7.074;2024-03-29T00:28:09;11.70;48.80
80937;DHT22;70395;51.382;7.074;2024-03-29T00:30:35;11.70;48.70
80937;DHT22;70395;51.382;7.074;2024-03-29T00:33:01;11.70;48.70
80937;DHT22;70395;51.382;7.074;2024-03-29T00:35:28;11.70;48.80
80937;DHT22;70395;51.382;7.074;2024-03-29T00:37:53;11.70;48.80
80937;DHT22;70395;51.382;7.074;2024-03-29T00:40:19;11.60;48.60
80937;DHT22;70395;51.382;7.074;2024-03-29T00:42:45;11.70;48.80
80937;DHT22;70395;51.382;7.074;2024-03-29T00:45:11;11.70;48.70
80937;DHT22;70395;51.382;7.074;2024-03-29T00:47:37;11.70;48.60
80937;DHT22;70395;51.382;7.074;2024-03-29T00:50:03;11.70;48.70
80937;DHT22;70395;51.382;7.074;2024-03-29T00:52:29;11.70;48.60
80937;DHT22;70395;51.382;7.074;2024-03-29T00:54:55;11.70;48.70
80937;DHT22;70395;51.382;7.074;2024-03-29T00:57:21;11.70;48.60
80937;DHT22;70395;51.382;7.074;2024-03-29T00:59:47;11.70;48.60
80937;DHT22;70395;51.382;7.074;2024-03-29T01:02:12;11.70;48.60
80937;DHT22;70395;51.382;7.074;2024-03-29T01:04:38;11.70;48.50
80937;DHT22;70395;51.382;7.074;2024-03-29T01:07:06;11.70;48.40
80937;DHT22;70395;51.382;7.074;2024-03-29T01:09:32;11.80;48.70
80937;DHT22;70395;51.382;7.074;2024-03-29T01:11:58;11.70;48.30
80937;DHT22;70395;51.382;7.074;2024-03-29T01:14:23;11.80;48.30
80937;DHT22;70395;51.382;7.074;2024-03-29T01:16:49;11.80;48.20
80937;DHT22;70395;51.382;7.074;2024-03-29T01:19:16;11.80;48.20
80937;DHT22;70395;51.382;7.074;2024-03-29T01:21:42;11.80;48.10
80937;DHT22;70395;51.382;7.074;2024-03-29T01:24:08;11.90;48.20
80937;DHT22;70395;51.382;7.074;2024-03-29T01:26:33;11.80;47.90
80937;DHT22;70395;51.382;7.074;2024-03-29T01:29:00;11.90;48.00
80937;DHT22;70395;51.382;7.074;2024-03-29T01:31:26;11.90;47.90
80937;DHT22;70395;51.382;7.074;2024-03-29T01:33:52;11.90;47.80
80937;DHT22;70395;51.382;7.074;2024-03-29T01:36:17;11.90;47.90
80937;DHT22;70395;51.382;7.074;2024-03-29T01:38:43;12.00;47.90
80937;DHT22;70395;51.382;7.074;2024-03-29T01:41:11;12.00;47.80
80937;DHT22;70395;51.382;7.074;2024-03-29T01:43:38;12.00;47.70
80937;DHT22;70395;51.382;7.074;2024-03-29T01:46:04;12.00;47.80
80937;DHT22;70395;51.382;7.074;2024-03-29T01:48:34;12.00;47.70
80937;DHT22;70395;51.382;7.074;2024-03-29T01:51:01;12.00;47.50
80937;DHT22;70395;51.382;7.074;2024-03-29T01:53:27;12.10;47.50
80937;DHT22;70395;51.382;7.074;2024-03-29T01:55:54;12.10;47.50
80937;DHT22;70395;51.382;7.074;2024-03-29T01:58:20;12.10;47.40
80937;DHT22;70395;51.382;7.074;2024-03-29T02:00:55;12.10;47.40
80937;DHT22;70395;51.382;7.074;2024-03-29T02:03:23;12.10;47.20
80937;DHT22;70395;51.382;7.074;2024-03-29T02:05:50;12.10;47.20
80937;DHT22;70395;51.382;7.074;2024-03-29T02:08:16;12.20;47.20
80937;DHT22;70395;51.382;7.074;2024-03-29T02:10:43;12.20;47.20
80937;DHT22;70395;51.382;7.074;2024-03-29T02:13:11;12.20;47.10
80937;DHT22;70395;51.382;7.074;2024-03-29T02:15:38;12.20;47.20
80937;DHT22;70395;51.382;7.074;2024-03-29T02:18:05;12.20;47.00
80937;DHT22;70395;51.382;7.074;2024-03-29T02:20:33;12.30;47.20
80937;DHT22;70395;51.382;7.074;2024-03-29T02:23:16;12.30;47.00
80937;DHT22;70395;51.382;7.074;2024-03-29T02:25:45;12.30;47.00
80937;DHT22;70395;51.382;7.074;2024-03-29T02:28:12;12.40;46.70
80937;DHT22;70395;51.382;7.074;2024-03-29T02:30:38;12.40;46.70
80937;DHT22;70395;51.382;7.074;2024-03-29T02:33:04;12.40;46.90
80937;DHT22;70395;51.382;7.074;2024-03-29T02:35:30;12.40;46.70
80937;DHT22;70395;51.382;7.074;2024-03-29T02:37:56;12.40;46.60
80937;DHT22;70395;51.382;7.074;2024-03-29T02:40:22;12.40;46.30
80937;DHT22;70395;51.382;7.074;2024-03-29T02:42:49;12.50;46.60
80937;DHT22;70395;51.382;7.074;2024-03-29T02:45:18;12.50;46.40
80937;DHT22;70395;51.382;7.074;2024-03-29T02:47:47;12.50;46.30
80937;DHT22;70395;51.382;7.074;2024-03-29T02:50:15;12.50;45.70
80937;DHT22;70395;51.382;7.074;2024-03-29T02:52:41;12.60;46.00
80937;DHT22;70395;51.382;7.074;2024-03-29T02:55:08;12.60;46.20
80937;DHT22;70395;51.382;7.074;2024-03-29T02:57:37;12.70;46.20
80937;DHT22;70395;51.382;7.074;2024-03-29T03:00:07;12.70;46.10
80937;DHT22;70395;51.382;7.074;2024-03-29T03:02:38;12.80;46.20
80937;DHT22;70395;51.382;7.074;2024-03-29T03:05:05;12.80;45.80
80937;DHT22;70395;51.382;7.074;2024-03-29T03:07:34;12.80;46.10
80937;DHT22;70395;51.382;7.074;2024-03-29T03:10:19;12.90;46.00
80937;DHT22;70395;51.382;7.074;2024-03-29T03:13:04;12.90;46.00
80937;DHT22;70395;51.382;7.074;2024-03-29T03:15:30;12.90;46.10
80937;DHT22;70395;51.382;7.074;2024-03-29T03:17:56;12.90;46.30
80937;DHT22;70395;51.382;7.074;2024-03-29T03:20:22;12.90;46.50
80937;DHT22;70395;51.382;7.074;2024-03-29T03:22:51;12.90;46.90
80937;DHT22;70395;51.382;7.074;2024-03-29T03:25:17;12.90;47.40
80937;DHT22;70395;51.382;7.074;2024-03-29T03:27:42;12.80;47.30
80937;DHT22;70395;51.382;7.074;2024-03-29T03:30:09;12.80;47.80
80937;DHT22;70395;51.382;7.074;2024-03-29T03:32:35;12.80;47.90
80937;DHT22;70395;51.382;7.074;2024-03-29T03:35:01;12.70;47.90
80937;DHT22;70395;51.382;7.074;2024-03-29T03:37:27;12.70;48.00
80937;DHT22;70395;51.382;7.074;2024-03-29T03:39:52;12.70;48.20
80937;DHT22;70395;51.382;7.074;2024-03-29T03:42:18;12.60;48.30
80937;DHT22;70395;51.382;7.074;2024-03-29T03:44:44;12.60;48.30
80937;DHT22;70395;51.382;7.074;2024-03-29T03:47:10;12.60;48.40
80937;DHT22;70395;51.382;7.074;2024-03-29T03:49:36;12.60;48.40
80937;DHT22;70395;51.382;7.074;2024-03-29T03:52:01;12.60;48.50
80937;DHT22;70395;51.382;7.074;2024-03-29T03:54:28;12.60;48.50
80937;DHT22;70395;51.382;7.074;2024-03-29T03:56:54;12.60;48.60
80937;DHT22;70395;51.382;7.074;2024-03-29T03:59:20;12.60;48.70
80937;DHT22;70395;51.382;7.074;2024-03-29T04:01:46;12.60;49.00
80937;DHT22;70395;51.382;7.074;2024-03-29T04:04:12;12.50;48.90
80937;DHT22;70395;51.382;7.074;2024-03-29T04:06:38;12.50;48.90
80937;DHT22;70395;51.382;7.074;2024-03-29T04:09:03;12.50;48.90
80937;DHT22;70395;51.382;7.074;2024-03-29T04:11:29;12.50;49.00
80937;DHT22;70395;51.382;7.074;2024-03-29T04:13:55;12.50;49.20
80937;DHT22;70395;51.382;7.074;2024-03-29T04:16:21;12.40;49.10
80937;DHT22;70395;51.382;7.074;2024-03-29T04:18:47;12.40;49.20
80937;DHT22;70395;51.382;7.074;2024-03-29T04:21:12;12.40;49.40
80937;DHT22;70395;51.382;7.074;2024-03-29T04:23:38;12.30;49.30
80937;DHT22;70395;51.382;7.074;2024-03-29T04:26:04;12.30;49.40
80937;DHT22;70395;51.382;7.074;2024-03-29T04:28:30;12.30;49.30
80937;DHT22;70395;51.382;7.074;2024-03-29T04:30:58;12.30;49.30
80937;DHT22;70395;51.382;7.074;2024-03-29T04:33:25;12.30;49.30
80937;DHT22;70395;51.382;7.074;2024-03-29T04:36:03;12.30;49.90
80937;DHT22;70395;51.382;7.074;2024-03-29T04:38:30;12.30;49.50
80937;DHT22;70395;51.382;7.074;2024-03-29T04:40:58;12.20;49.60
80937;DHT22;70395;51.382;7.074;2024-03-29T04:43:25;12.20;49.60
80937;DHT22;70395;51.382;7.074;2024-03-29T04:48:38;12.20;49.80
80937;DHT22;70395;51.382;7.074;2024-03-29T04:51:05;12.20;50.00
80937;DHT22;70395;51.382;7.074;2024-03-29T04:53:31;12.20;50.30
80937;DHT22;70395;51.382;7.074;2024-03-29T04:55:58;12.10;50.60
80937;DHT22;70395;51.382;7.074;2024-03-29T04:58:27;12.00;50.50
80937;DHT22;70395;51.382;7.074;2024-03-29T05:00:54;12.00;51.10
80937;DHT22;70395;51.382;7.074;2024-03-29T05:03:21;11.90;51.40
80937;DHT22;70395;51.382;7.074;2024-03-29T05:05:51;11.90;52.00
80937;DHT22;70395;51.382;7.074;2024-03-29T05:08:18;11.80;52.00
80937;DHT22;70395;51.382;7.074;2024-03-29T05:10:45;11.80;52.70
80937;DHT22;70395;51.382;7.074;2024-03-29T05:13:12;11.70;52.90
80937;DHT22;70395;51.382;7.074;2024-03-29T05:15:38;11.70;52.90
80937;DHT22;70395;51.382;7.074;2024-03-29T05:18:04;11.60;53.60
80937;DHT22;70395;51.382;7.074;2024-03-29T05:20:31;11.60;54.30
80937;DHT22;70395;51.382;7.074;2024-03-29T05:23:00;11.50;54.40
80937;DHT22;70395;51.382;7.074;2024-03-29T05:25:27;11.40;55.10
80937;DHT22;70395;51.382;7.074;2024-03-29T05:27:53;11.40;55.50
80937;DHT22;70395;51.382;7.074;2024-03-29T05:30:19;11.30;55.70
80937;DHT22;70395;51.382;7.074;2024-03-29T05:32:45;11.20;55.70
80937;DHT22;70395;51.382;7.074;2024-03-29T05:35:11;11.20;55.90
80937;DHT22;70395;51.382;7.074;2024-03-29T05:37:37;11.20;56.00
80937;DHT22;70395;51.382;7.074;2024-03-29T05:40:04;11.10;56.70
80937;DHT22;70395;51.382;7.074;2024-03-29T05:42:32;11.10;57.30
80937;DHT22;70395;51.382;7.074;2024-03-29T05:44:59;11.00;57.90
80937;DHT22;70395;51.382;7.074;2024-03-29T05:47:25;10.90;58.20
80937;DHT22;70395;51.382;7.074;2024-03-29T05:49:51;10.90;58.40
80937;DHT22;70395;51.382;7.074;2024-03-29T05:52:17;10.90;59.10
80937;DHT22;70395;51.382;7.074;2024-03-29T05:54:44;10.90;59.20
80937;DHT22;70395;51.382;7.074;2024-03-29T05:57:10;10.80;59.70
80937;DHT22;70395;51.382;7.074;2024-03-29T05:59:39;10.80;59.70
80937;DHT22;70395;51.382;7.074;2024-03-29T06:02:05;10.70;59.70
80937;DHT22;70395;51.382;7.074;2024-03-29T06:04:31;10.70;59.50
80937;DHT22;70395;51.382;7.074;2024-03-29T06:07:00;10.80;59.10
80937;DHT22;70395;51.382;7.074;2024-03-29T06:09:27;10.70;58.90
80937;DHT22;70395;51.382;7.074;2024-03-29T06:11:54;10.70;58.50
80937;DHT22;70395;51.382;7.074;2024-03-29T06:14:21;10.70;58.20
80937;DHT22;70395;51.382;7.074;2024-03-29T06:17:07;10.70;58.60
80937;DHT22;70395;51.382;7.074;2024-03-29T06:19:52;10.70;58.20
80937;DHT22;70395;51.382;7.074;2024-03-29T06:22:22;10.70;58.20
80937;DHT22;70395;51.382;7.074;2024-03-29T06:24:51;10.70;58.00
80937;DHT22;70395;51.382;7.074;2024-03-29T06:27:18;10.80;58.10
80937;DHT22;70395;51.382;7.074;2024-03-29T06:29:46;10.80;58.60
80937;DHT22;70395;51.382;7.074;2024-03-29T06:32:12;10.80;58.70
80937;DHT22;70395;51.382;7.074;2024-03-29T06:34:38;10.80;58.80
80937;DHT22;70395;51.382;7.074;2024-03-29T06:37:04;10.80;59.00
80937;DHT22;70395;51.382;7.074;2024-03-29T06:39:30;10.90;59.30
80937;DHT22;70395;51.382;7.074;2024-03-29T06:41:56;10.90;59.00
80937;DHT22;70395;51.382;7.074;2024-03-29T06:44:22;11.00;59.90
80937;DHT22;70395;51.382;7.074;2024-03-29T06:46:48;11.00;59.40
80937;DHT22;70395;51.382;7.074;2024-03-29T06:49:14;11.10;59.30
80937;DHT22;70395;51.382;7.074;2024-03-29T06:51:40;11.10;59.20
80937;DHT22;70395;51.382;7.074;2024-03-29T06:54:06;11.20;59.50
80937;DHT22;70395;51.382;7.074;2024-03-29T06:56:32;11.20;59.70
80937;DHT22;70395;51.382;7.074;2024-03-29T06:58:59;11.30;59.70
80937;DHT22;70395;51.382;7.074;2024-03-29T07:01:25;11.30;60.00
80937;DHT22;70395;51.382;7.074;2024-03-29T07:03:50;11.30;61.00
80937;DHT22;70395;51.382;7.074;2024-03-29T07:06:16;11.50;60.30
80937;DHT22;70395;51.382;7.074;2024-03-29T07:08:42;11.50;60.00
80937;DHT22;70395;51.382;7.074;2024-03-29T07:11:08;11.50;60.30
80937;DHT22;70395;51.382;7.074;2024-03-29T07:13:35;11.60;60.10
80937;DHT22;70395;51.382;7.074;2024-03-29T07:16:03;11.70;60.50
80937;DHT22;70395;51.382;7.074;2024-03-29T07:18:29;11.70;59.90
80937;DHT22;70395;51.382;7.074;2024-03-29T07:20:55;11.80;59.80
80937;DHT22;70395;51.382;7.074;2024-03-29T07:23:21;11.80;60.10
80937;DHT22;70395;51.382;7.074;2024-03-29T07:26:01;11.90;59.80
80937;DHT22;70395;51.382;7.074;2024-03-29T07:28:29;11.90;60.20
80937;DHT22;70395;51.382;7.074;2024-03-29T07:30:55;12.00;60.10
80937;DHT22;70395;51.382;7.074;2024-03-29T07:33:22;12.10;59.60
80937;DHT22;70395;51.382;7.074;2024-03-29T07:35:57;12.10;59.90
80937;DHT22;70395;51.382;7.074;2024-03-29T07:38:23;12.20;59.90
80937;DHT22;70395;51.382;7.074;2024-03-29T07:40:52;12.20;60.00
80937;DHT22;70395;51.382;7.074;2024-03-29T07:43:18;12.20;60.40
80937;DHT22;70395;51.382;7.074;2024-03-29T07:45:45;12.20;60.00
80937;DHT22;70395;51.382;7.074;2024-03-29T07:48:15;12.30;60.20
80937;DHT22;70395;51.382;7.074;2024-03-29T07:50:43;12.30;60.30
80937;DHT22;70395;51.382;7.074;2024-03-29T07:53:10;12.30;60.30
80937;DHT22;70395;51.382;7.074;2024-03-29T07:55:38;12.30;60.30
80937;DHT22;70395;51.382;7.074;2024-03-29T07:58:06;12.40;61.00
80937;DHT22;70395;51.382;7.074;2024-03-29T08:00:34;12.40;61.50
80937;DHT22;70395;51.382;7.074;2024-03-29T08:03:00;12.50;61.80
80937;DHT22;70395;51.382;7.074;2024-03-29T08:05:29;12.50;61.70
80937;DHT22;70395;51.382;7.074;2024-03-29T08:07:55;12.50;62.60
80937;DHT22;70395;51.382;7.074;2024-03-29T08:10:21;12.50;61.90
80937;DHT22;70395;51.382;7.074;2024-03-29T08:12:47;12.40;62.30
80937;DHT22;70395;51.382;7.074;2024-03-29T08:15:14;12.50;62.70
80937;DHT22;70395;51.382;7.074;2024-03-29T08:17:39;12.50;63.00
80937;DHT22;70395;51.382;7.074;2024-03-29T08:20:05;12.50;63.50
80937;DHT22;70395;51.382;7.074;2024-03-29T08:22:31;12.50;63.10
80937;DHT22;70395;51.382;7.074;2024-03-29T08:25:00;12.50;63.20
80937;DHT22;70395;51.382;7.074;2024-03-29T08:27:29;12.50;63.30
80937;DHT22;70395;51.382;7.074;2024-03-29T08:29:55;12.60;63.30
80937;DHT22;70395;51.382;7.074;2024-03-29T08:32:21;12.60;63.70
80937;DHT22;70395;51.382;7.074;2024-03-29T08:34:47;12.70;63.50
80937;DHT22;70395;51.382;7.074;2024-03-29T08:37:13;12.70;63.80
80937;DHT22;70395;51.382;7.074;2024-03-29T08:39:38;12.80;63.40
80937;DHT22;70395;51.382;7.074;2024-03-29T08:42:05;12.80;62.90
80937;DHT22;70395;51.382;7.074;2024-03-29T08:44:32;12.90;63.10
80937;DHT22;70395;51.382;7.074;2024-03-29T08:46:59;12.90;63.40
80937;DHT22;70395;51.382;7.074;2024-03-29T08:49:27;13.00;63.40
80937;DHT22;70395;51.382;7.074;2024-03-29T08:51:53;13.00;63.30
80937;DHT22;70395;51.382;7.074;2024-03-29T08:54:19;13.10;63.00
80937;DHT22;70395;51.382;7.074;2024-03-29T08:56:45;13.10;62.90
80937;DHT22;70395;51.382;7.074;2024-03-29T08:59:11;13.10;63.20
80937;DHT22;70395;51.382;7.074;2024-03-29T09:01:43;13.20;63.20
80937;DHT22;70395;51.382;7.074;2024-03-29T09:04:11;13.20;63.30
80937;DHT22;70395;51.382;7.074;2024-03-29T09:06:37;13.30;63.10
80937;DHT22;70395;51.382;7.074;2024-03-29T09:09:07;13.30;63.30
80937;DHT22;70395;51.382;7.074;2024-03-29T09:11:33;13.40;63.20
80937;DHT22;70395;51.382;7.074;2024-03-29T09:13:59;13.50;63.30
80937;DHT22;70395;51.382;7.074;2024-03-29T09:16:27;13.50;63.40
80937;DHT22;70395;51.382;7.074;2024-03-29T09:18:54;13.60;63.70
80937;DHT22;70395;51.382;7.074;2024-03-29T09:21:20;13.60;63.20
80937;DHT22;70395;51.382;7.074;2024-03-29T09:23:47;13.60;63.20
80937;DHT22;70395;51.382;7.074;2024-03-29T09:26:15;13.70;63.40
80937;DHT22;70395;51.382;7.074;2024-03-29T09:28:41;13.70;63.40
80937;DHT22;70395;51.382;7.074;2024-03-29T09:31:07;13.80;63.50
80937;DHT22;70395;51.382;7.074;2024-03-29T09:33:33;13.80;63.50
80937;DHT22;70395;51.382;7.074;2024-03-29T09:35:59;13.90;63.50
80937;DHT22;70395;51.382;7.074;2024-03-29T09:38:26;14.00;63.50
80937;DHT22;70395;51.382;7.074;2024-03-29T09:43:43;14.10;64.00
80937;DHT22;70395;51.382;7.074;2024-03-29T09:46:10;14.20;63.20
80937;DHT22;70395;51.382;7.074;2024-03-29T09:48:43;14.30;62.50
80937;DHT22;70395;51.382;7.074;2024-03-29T09:51:13;14.40;62.40
80937;DHT22;70395;51.382;7.074;2024-03-29T09:53:42;14.50;62.00
80937;DHT22;70395;51.382;7.074;2024-03-29T09:56:09;14.50;61.60
80937;DHT22;70395;51.382;7.074;2024-03-29T09:58:37;14.60;61.60
80937;DHT22;70395;51.382;7.074;2024-03-29T10:01:05;14.70;61.60
80937;DHT22;70395;51.382;7.074;2024-03-29T10:03:39;14.80;61.50
80937;DHT22;70395;51.382;7.074;2024-03-29T10:06:07;14.90;61.40
80937;DHT22;70395;51.382;7.074;2024-03-29T10:08:35;15.00;61.20
80937;DHT22;70395;51.382;7.074;2024-03-29T10:11:01;15.10;61.10
80937;DHT22;70395;51.382;7.074;2024-03-29T10:13:28;15.20;61.10
80937;DHT22;70395;51.382;7.074;2024-03-29T10:15:55;15.30;60.40
80937;DHT22;70395;51.382;7.074;2024-03-29T10:18:23;15.30;60.00
80937;DHT22;70395;51.382;7.074;2024-03-29T10:21:02;15.40;59.60
80937;DHT22;70395;51.382;7.074;2024-03-29T10:23:31;15.40;59.30
80937;DHT22;70395;51.382;7.074;2024-03-29T10:25:58;15.40;59.30
80937;DHT22;70395;51.382;7.074;2024-03-29T10:28:30;15.50;59.50
80937;DHT22;70395;51.382;7.074;2024-03-29T10:30:59;15.50;59.20
80937;DHT22;70395;51.382;7.074;2024-03-29T10:33:29;15.50;59.20
80937;DHT22;70395;51.382;7.074;2024-03-29T10:36:03;15.50;59.10
80937;DHT22;70395;51.382;7.074;2024-03-29T10:38:34;15.50;59.10
80937;DHT22;70395;51.382;7.074;2024-03-29T10:41:01;15.50;58.80
80937;DHT22;70395;51.382;7.074;2024-03-29T10:43:29;15.50;58.90
80937;DHT22;70395;51.382;7.074;2024-03-29T10:45:56;15.50;58.80
80937;DHT22;70395;51.382;7.074;2024-03-29T10:48:28;15.50;58.90
80937;DHT22;70395;51.382;7.074;2024-03-29T10:50:58;15.50;58.70
80937;DHT22;70395;51.382;7.074;2024-03-29T10:53:25;15.60;58.90
80937;DHT22;70395;51.382;7.074;2024-03-29T10:55:54;15.70;58.90
80937;DHT22;70395;51.382;7.074;2024-03-29T10:58:30;15.60;58.80
80937;DHT22;70395;51.382;7.074;2024-03-29T11:00:59;15.70;58.70
80937;DHT22;70395;51.382;7.074;2024-03-29T11:03:32;15.80;58.90
80937;DHT22;70395;51.382;7.074;2024-03-29T11:06:05;15.80;58.70
80937;DHT22;70395;51.382;7.074;2024-03-29T11:08:36;15.90;58.60
80937;DHT22;70395;51.382;7.074;2024-03-29T11:11:12;15.90;58.50
80937;DHT22;70395;51.382;7.074;2024-03-29T11:14:02;16.00;58.60
80937;DHT22;70395;51.382;7.074;2024-03-29T11:16:31;16.10;58.90
80937;DHT22;70395;51.382;7.074;2024-03-29T11:18:58;16.30;58.80
80937;DHT22;70395;51.382;7.074;2024-03-29T11:21:25;16.40;58.60
80937;DHT22;70395;51.382;7.074;2024-03-29T11:23:54;16.60;57.10
80937;DHT22;70395;51.382;7.074;2024-03-29T11:26:22;16.80;56.90
80937;DHT22;70395;51.382;7.074;2024-03-29T11:28:52;17.00;57.10
80937;DHT22;70395;51.382;7.074;2024-03-29T11:31:23;17.20;57.00
80937;DHT22;70395;51.382;7.074;2024-03-29T11:33:50;17.50;56.40
80937;DHT22;70395;51.382;7.074;2024-03-29T11:36:28;17.70;55.90
80937;DHT22;70395;51.382;7.074;2024-03-29T11:38:57;18.00;55.00
80937;DHT22;70395;51.382;7.074;2024-03-29T11:41:27;18.20;55.20
80937;DHT22;70395;51.382;7.074;2024-03-29T11:43:55;18.40;54.20
80937;DHT22;70395;51.382;7.074;2024-03-29T11:46:23;18.40;53.20
80937;DHT22;70395;51.382;7.074;2024-03-29T11:48:50;18.40;53.30
80937;DHT22;70395;51.382;7.074;2024-03-29T11:51:22;18.40;53.20
80937;DHT22;70395;51.382;7.074;2024-03-29T11:53:50;18.30;53.20
80937;DHT22;70395;51.382;7.074;2024-03-29T11:56:17;18.20;53.30
80937;DHT22;70395;51.382;7.074;2024-03-29T11:58:44;18.20;53.40
80937;DHT22;70395;51.382;7.074;2024-03-29T12:01:10;18.10;53.00
80937;DHT22;70395;51.382;7.074;2024-03-29T12:03:40;18.00;53.60
80937;DHT22;70395;51.382;7.074;2024-03-29T12:06:07;18.00;54.10
80937;DHT22;70395;51.382;7.074;2024-03-29T12:08:38;18.00;54.00
80937;DHT22;70395;51.382;7.074;2024-03-29T12:11:05;17.90;54.00
80937;DHT22;70395;51.382;7.074;2024-03-29T12:13:32;17.90;53.20
80937;DHT22;70395;51.382;7.074;2024-03-29T12:15:59;17.90;53.30
80937;DHT22;70395;51.382;7.074;2024-03-29T12:18:26;17.80;53.20
80937;DHT22;70395;51.382;7.074;2024-03-29T12:20:57;17.80;52.20
80937;DHT22;70395;51.382;7.074;2024-03-29T12:23:23;17.80;52.20
80937;DHT22;70395;51.382;7.074;2024-03-29T12:25:50;17.70;51.40
80937;DHT22;70395;51.382;7.074;2024-03-29T12:28:23;17.60;51.40
80937;DHT22;70395;51.382;7.074;2024-03-29T12:30:50;17.60;51.90
80937;DHT22;70395;51.382;7.074;2024-03-29T12:33:19;17.60;51.70
80937;DHT22;70395;51.382;7.074;2024-03-29T12:35:52;17.50;50.60
80937;DHT22;70395;51.382;7.074;2024-03-29T12:38:21;17.50;50.70
80937;DHT22;70395;51.382;7.074;2024-03-29T12:40:52;17.50;51.10
80937;DHT22;70395;51.382;7.074;2024-03-29T12:43:31;17.50;50.70
80937;DHT22;70395;51.382;7.074;2024-03-29T12:46:05;17.60;51.10
80937;DHT22;70395;51.382;7.074;2024-03-29T12:48:31;17.60;51.00
80937;DHT22;70395;51.382;7.074;2024-03-29T12:51:00;17.60;51.60
80937;DHT22;70395;51.382;7.074;2024-03-29T12:53:28;17.70;51.30
80937;DHT22;70395;51.382;7.074;2024-03-29T12:56:00;17.80;51.50
80937;DHT22;70395;51.382;7.074;2024-03-29T12:58:28;17.80;50.10
80937;DHT22;70395;51.382;7.074;2024-03-29T13:00:58;17.80;50.20
80937;DHT22;70395;51.382;7.074;2024-03-29T13:03:24;17.80;50.00
80937;DHT22;70395;51.382;7.074;2024-03-29T13:05:53;17.80;50.50
80937;DHT22;70395;51.382;7.074;2024-03-29T13:08:21;17.80;51.00
80937;DHT22;70395;51.382;7.074;2024-03-29T13:10:53;17.80;50.60
80937;DHT22;70395;51.382;7.074;2024-03-29T13:13:20;17.80;50.30
80937;DHT22;70395;51.382;7.074;2024-03-29T13:15:47;17.90;50.80
80937;DHT22;70395;51.382;7.074;2024-03-29T13:18:15;17.90;50.30
80937;DHT22;70395;51.382;7.074;2024-03-29T13:20:44;18.00;50.90
80937;DHT22;70395;51.382;7.074;2024-03-29T13:23:10;18.10;50.30
80937;DHT22;70395;51.382;7.074;2024-03-29T13:25:44;18.20;50.20
80937;DHT22;70395;51.382;7.074;2024-03-29T13:28:10;18.30;50.00
80937;DHT22;70395;51.382;7.074;2024-03-29T13:30:36;18.40;50.00
80937;DHT22;70395;51.382;7.074;2024-03-29T13:33:09;18.50;49.60
80937;DHT22;70395;51.382;7.074;2024-03-29T13:35:42;18.60;49.20
80937;DHT22;70395;51.382;7.074;2024-03-29T13:38:08;18.80;48.60
80937;DHT22;70395;51.382;7.074;2024-03-29T13:40:34;18.80;49.10
80937;DHT22;70395;51.382;7.074;2024-03-29T13:43:00;18.90;48.40
80937;DHT22;70395;51.382;7.074;2024-03-29T13:45:29;19.00;47.70
80937;DHT22;70395;51.382;7.074;2024-03-29T13:48:03;19.00;48.10
80937;DHT22;70395;51.382;7.074;2024-03-29T13:50:36;19.00;47.50
80937;DHT22;70395;51.382;7.074;2024-03-29T13:53:05;19.00;47.80
80937;DHT22;70395;51.382;7.074;2024-03-29T13:55:36;19.00;48.30
80937;DHT22;70395;51.382;7.074;2024-03-29T13:58:02;19.10;48.60
80937;DHT22;70395;51.382;7.074;2024-03-29T14:00:28;19.40;49.20
80937;DHT22;70395;51.382;7.074;2024-03-29T14:03:01;19.70;49.60
80937;DHT22;70395;51.382;7.074;2024-03-29T14:05:30;20.20;49.90
80937;DHT22;70395;51.382;7.074;2024-03-29T14:08:01;20.70;49.30
80937;DHT22;70395;51.382;7.074;2024-03-29T14:10:28;21.10;49.10
80937;DHT22;70395;51.382;7.074;2024-03-29T14:12:54;21.50;49.20
80937;DHT22;70395;51.382;7.074;2024-03-29T14:15:25;22.00;48.70
80937;DHT22;70395;51.382;7.074;2024-03-29T14:17:54;22.40;47.20
80937;DHT22;70395;51.382;7.074;2024-03-29T14:20:20;22.70;47.20
80937;DHT22;70395;51.382;7.074;2024-03-29T14:22:47;22.90;47.10
80937;DHT22;70395;51.382;7.074;2024-03-29T14:25:20;23.00;45.60
80937;DHT22;70395;51.382;7.074;2024-03-29T14:27:46;23.00;45.50
80937;DHT22;70395;51.382;7.074;2024-03-29T14:30:20;22.80;45.70
80937;DHT22;70395;51.382;7.074;2024-03-29T14:32:51;22.60;45.60
80937;DHT22;70395;51.382;7.074;2024-03-29T14:35:20;22.30;45.60
80937;DHT22;70395;51.382;7.074;2024-03-29T14:37:55;22.20;46.00
80937;DHT22;70395;51.382;7.074;2024-03-29T14:40:21;21.90;46.10
80937;DHT22;70395;51.382;7.074;2024-03-29T14:42:47;21.80;46.40
80937;DHT22;70395;51.382;7.074;2024-03-29T14:45:21;21.60;46.60
80937;DHT22;70395;51.382;7.074;2024-03-29T14:47:52;21.50;46.80
80937;DHT22;70395;51.382;7.074;2024-03-29T14:50:21;21.30;47.20
80937;DHT22;70395;51.382;7.074;2024-03-29T14:52:50;21.30;47.20
80937;DHT22;70395;51.382;7.074;2024-03-29T14:55:18;21.20;47.40
80937;DHT22;70395;51.382;7.074;2024-03-29T14:57:44;21.10;47.30
80937;DHT22;70395;51.382;7.074;2024-03-29T15:00:15;21.10;46.30
80937;DHT22;70395;51.382;7.074;2024-03-29T15:02:41;20.90;46.50
80937;DHT22;70395;51.382;7.074;2024-03-29T15:05:12;20.70;46.70
80937;DHT22;70395;51.382;7.074;2024-03-29T15:07:46;20.60;47.20
80937;DHT22;70395;51.382;7.074;2024-03-29T15:10:15;20.40;47.10
80937;DHT22;70395;51.382;7.074;2024-03-29T15:12:56;20.30;46.80
80937;DHT22;70395;51.382;7.074;2024-03-29T15:15:22;20.10;47.10
80937;DHT22;70395;51.382;7.074;2024-03-29T15:17:51;19.90;47.20
80937;DHT22;70395;51.382;7.074;2024-03-29T15:20:18;19.80;47.70
80937;DHT22;70395;51.382;7.074;2024-03-29T15:22:46;19.60;47.60
80937;DHT22;70395;51.382;7.074;2024-03-29T15:25:16;19.50;47.90
80937;DHT22;70395;51.382;7.074;2024-03-29T15:27:49;19.50;48.30
80937;DHT22;70395;51.382;7.074;2024-03-29T15:30:39;19.30;48.50
80937;DHT22;70395;51.382;7.074;2024-03-29T15:33:13;19.20;48.90
80937;DHT22;70395;51.382;7.074;2024-03-29T15:35:41;19.10;48.90
80937;DHT22;70395;51.382;7.074;2024-03-29T15:38:07;18.90;49.10
80937;DHT22;70395;51.382;7.074;2024-03-29T15:40:37;18.80;49.40